createdAt,value
2022-09-28T00:02:48.913Z,10.94
2022-09-28T00:06:56.478Z,11.96
2022-09-28T00:10:53.789Z,11.79
2022-09-28T00:14:59.778Z,11.36
2022-09-28T00:18:58.630Z,10.96
2022-09-28T00:22:58.733Z,10.87
2022-09-28T00:27:09.095Z,11.98
2022-09-28T00:31:16.675Z,11.89
2022-09-28T00:35:16.958Z,11.43
2022-09-28T00:39:27.412Z,10.96
2022-09-28T00:43:35.957Z,10.82
2022-09-28T00:47:43.869Z,11.86
2022-09-28T00:51:38.123Z,11.79
2022-09-28T00:55:25.244Z,11.30
2022-09-28T00:59:32.683Z,10.88
2022-09-28T01:03:30.194Z,10.88
2022-09-28T01:07:36.775Z,11.93
2022-09-28T01:11:32.781Z,11.84
2022-09-28T01:15:33.170Z,11.43
2022-09-28T01:19:50.400Z,11.04
2022-09-28T01:24:13.065Z,11.11
2022-09-28T01:28:22.260Z,12.25
2022-09-28T01:32:22.220Z,12.08
2022-09-28T01:36:22.671Z,11.61
2022-09-28T01:40:43.995Z,11.19
2022-09-28T01:44:54.407Z,11.27
2022-09-28T01:49:04.850Z,12.37
2022-09-28T01:53:15.488Z,12.21
2022-09-28T01:57:26.743Z,11.78
2022-09-28T02:01:34.270Z,11.41
2022-09-28T02:05:44.952Z,11.39
2022-09-28T02:09:58.525Z,12.46
2022-09-28T02:14:24.037Z,12.21
2022-09-28T02:18:31.518Z,11.71
2022-09-28T02:22:42.215Z,11.27
2022-09-28T02:26:53.811Z,11.29
2022-09-28T02:30:41.857Z,12.42
2022-09-28T02:34:49.308Z,12.33
2022-09-28T02:38:57.925Z,11.89
2022-09-28T02:43:05.595Z,11.50
2022-09-28T02:47:29.421Z,11.46
2022-09-28T02:51:29.804Z,12.56
2022-09-28T02:55:45.563Z,12.36
2022-09-28T03:00:09.111Z,11.90
2022-09-28T03:04:16.631Z,11.39
2022-09-28T03:08:30.125Z,11.37
2022-09-28T03:12:37.641Z,12.55
2022-09-28T03:16:54.798Z,12.47
2022-09-28T03:21:01.140Z,12.02
2022-09-28T03:25:08.684Z,11.61
2022-09-28T03:29:17.082Z,11.59
2022-09-28T03:33:25.305Z,12.71
2022-09-28T03:37:25.691Z,12.57
2022-09-28T03:41:36.272Z,12.14
2022-09-28T03:45:44.535Z,11.70
2022-09-28T03:49:43.089Z,11.60
2022-09-28T03:53:50.606Z,12.70
2022-09-28T03:57:57.322Z,12.57
2022-09-28T04:01:57.604Z,12.11
2022-09-28T04:06:05.150Z,11.72
2022-09-28T04:10:14.645Z,11.73
2022-09-28T04:14:22.131Z,12.85
2022-09-28T04:18:04.032Z,12.78
2022-09-28T04:22:04.180Z,12.36
2022-09-28T04:26:11.675Z,11.97
2022-09-28T04:30:11.819Z,11.87
2022-09-28T04:34:19.326Z,12.98
2022-09-28T04:38:48.382Z,12.95
2022-09-28T04:42:55.377Z,12.52
2022-09-28T04:47:05.173Z,12.12
2022-09-28T04:50:11.711Z,12.10
2022-09-28T04:54:06.670Z,13.12
2022-09-28T04:58:06.674Z,13.31
2022-09-28T05:01:40.174Z,12.93
2022-09-28T05:05:48.993Z,12.55
2022-09-28T05:10:08.344Z,12.47
2022-09-28T05:14:06.721Z,13.43
2022-09-28T05:17:43.887Z,13.32
2022-09-28T05:21:12.553Z,13.02
2022-09-28T05:25:15.750Z,12.74
2022-09-28T05:29:32.919Z,12.82
2022-09-28T05:33:21.218Z,13.89
2022-09-28T05:36:59.131Z,13.85
2022-09-28T05:40:56.525Z,13.50
2022-09-28T05:44:54.961Z,13.12
2022-09-28T05:49:02.503Z,12.82
2022-09-28T05:53:02.726Z,12.89
2022-09-28T05:56:50.378Z,14.10
2022-09-28T06:00:51.180Z,14.16
2022-09-28T06:04:41.561Z,13.86
2022-09-28T06:08:22.951Z,13.80
2022-09-28T06:12:32.934Z,14.84
2022-09-28T06:16:44.007Z,14.88
2022-09-28T06:20:40.241Z,14.50
2022-09-28T06:24:47.813Z,14.12
2022-09-28T06:28:37.895Z,14.16
2022-09-28T06:32:38.679Z,15.30
2022-09-28T06:36:10.163Z,15.35
2022-09-28T06:39:41.785Z,15.10
2022-09-28T06:43:15.292Z,14.67
2022-09-28T06:47:14.097Z,14.47
2022-09-28T06:51:21.529Z,15.46
2022-09-28T06:55:28.331Z,15.37
2022-09-28T06:59:31.742Z,14.91
2022-09-28T07:03:41.853Z,14.41
2022-09-28T07:07:50.942Z,14.47
2022-09-28T07:11:26.304Z,15.54
2022-09-28T07:15:36.557Z,15.52
2022-09-28T07:19:43.054Z,15.18
2022-09-28T07:23:54.082Z,14.73
2022-09-28T07:28:04.655Z,14.75
2022-09-28T07:32:23.920Z,15.65
2022-09-28T07:36:34.434Z,15.42
2022-09-28T07:40:33.752Z,14.90
2022-09-28T07:44:41.985Z,14.48
2022-09-28T07:48:40.302Z,14.48
2022-09-28T07:52:36.576Z,15.67
2022-09-28T07:56:50.318Z,15.70
2022-09-28T08:00:17.714Z,15.40
2022-09-28T08:04:25.193Z,15.18
2022-09-28T08:07:58.170Z,15.32
2022-09-28T08:12:06.849Z,16.54
2022-09-28T08:16:19.668Z,16.82
2022-09-28T08:20:34.533Z,16.76
2022-09-28T08:24:44.096Z,16.70
2022-09-28T08:28:44.309Z,17.09
2022-09-28T08:32:51.782Z,18.16
2022-09-28T08:37:05.034Z,18.29
2022-09-28T08:41:16.763Z,18.12
2022-09-28T08:45:21.913Z,18.19
2022-09-28T08:49:24.064Z,18.22
2022-09-28T08:53:45.846Z,17.72
2022-09-28T08:57:56.316Z,17.32
2022-09-28T09:01:56.417Z,18.17
2022-09-28T09:06:04.998Z,19.50
2022-09-28T09:10:31.023Z,19.59
2022-09-28T09:14:37.574Z,19.33
2022-09-28T09:18:57.357Z,18.91
2022-09-28T09:22:59.810Z,18.64
2022-09-28T09:27:13.005Z,18.90
2022-09-28T09:31:02.955Z,18.96
2022-09-28T09:35:13.591Z,19.15
2022-09-28T09:39:25.375Z,19.50
2022-09-28T09:43:49.101Z,19.75
2022-09-28T09:47:49.848Z,20.02
2022-09-28T09:52:11.274Z,20.28
2022-09-28T09:55:58.446Z,20.43
2022-09-28T09:59:35.423Z,20.53
2022-09-28T10:03:37.589Z,20.55
2022-09-28T10:07:42.603Z,20.60
2022-09-28T10:11:57.299Z,20.70
2022-09-28T10:16:04.919Z,20.73
2022-09-28T10:20:14.154Z,20.82
2022-09-28T10:24:07.818Z,21.00
2022-09-28T10:28:15.289Z,21.17
2022-09-28T10:32:35.235Z,21.31
2022-09-28T10:36:37.383Z,21.46
2022-09-28T10:40:44.219Z,21.41
2022-09-28T10:44:33.662Z,21.36
2022-09-28T10:49:07.575Z,21.19
2022-09-28T10:53:28.185Z,20.82
2022-09-28T10:57:27.087Z,20.37
2022-09-28T11:01:40.553Z,19.90
2022-09-28T11:05:24.001Z,19.70
2022-09-28T11:09:31.233Z,19.79
2022-09-28T11:13:05.598Z,20.01
2022-09-28T11:17:14.114Z,20.38
2022-09-28T11:21:12.654Z,20.76
2022-09-28T11:25:02.736Z,20.78
2022-09-28T11:29:10.314Z,20.53
2022-09-28T11:33:20.507Z,20.64
2022-09-28T11:37:33.991Z,21.02
2022-09-28T11:41:45.756Z,21.27
2022-09-28T11:45:51.739Z,21.47
2022-09-28T11:49:57.082Z,21.10
2022-09-28T11:54:02.471Z,20.76
2022-09-28T11:58:03.696Z,20.57
2022-09-28T12:02:08.426Z,20.73
2022-09-28T12:06:18.579Z,20.52
2022-09-28T12:09:39.622Z,20.23
2022-09-28T12:13:48.509Z,19.92
2022-09-28T12:19:59.566Z,19.35
2022-09-28T12:24:06.403Z,19.65
2022-09-28T12:28:28.396Z,20.09
2022-09-28T12:32:36.579Z,20.47
2022-09-28T12:36:46.557Z,20.70
2022-09-28T12:40:54.766Z,20.83
2022-09-28T12:45:13.807Z,20.43
2022-09-28T12:49:04.150Z,19.85
2022-09-28T12:53:19.308Z,19.46
2022-09-28T12:57:00.344Z,19.42
2022-09-28T13:00:23.806Z,19.70
2022-09-28T13:04:20.426Z,20.02
2022-09-28T13:08:34.402Z,20.29
2022-09-28T13:13:07.006Z,20.52
2022-09-28T13:16:37.716Z,20.68
2022-09-28T13:21:02.106Z,20.65
2022-09-28T13:24:53.215Z,20.58
2022-09-28T13:29:01.052Z,20.67
2022-09-28T13:32:58.072Z,20.54
2022-09-28T13:36:16.391Z,20.54
2022-09-28T13:40:06.579Z,20.52
2022-09-28T13:44:02.846Z,20.50
2022-09-28T13:47:56.523Z,20.51
2022-09-28T13:51:38.833Z,20.42
2022-09-28T13:55:50.261Z,20.29
2022-09-28T13:59:19.934Z,20.23
2022-09-28T14:03:39.351Z,20.10
2022-09-28T14:07:57.286Z,19.90
2022-09-28T14:12:39.531Z,19.65
2022-09-28T14:16:59.926Z,19.56
2022-09-28T14:21:08.230Z,19.51
2022-09-28T14:25:08.186Z,19.46
2022-09-28T14:29:10.147Z,19.34
2022-09-28T14:33:14.466Z,19.20
2022-09-28T14:37:23.991Z,19.03
2022-09-28T14:41:14.408Z,18.89
2022-09-28T14:45:11.325Z,18.88
2022-09-28T14:49:27.588Z,18.78
2022-09-28T14:53:44.822Z,18.63
2022-09-28T14:57:52.723Z,18.46
2022-09-28T15:02:00.455Z,18.29
2022-09-28T15:05:17.492Z,18.13
2022-09-28T15:08:33.859Z,17.98
2022-09-28T15:12:36.485Z,17.81
2022-09-28T15:16:27.349Z,17.66
2022-09-28T15:20:32.902Z,17.46
2022-09-28T15:24:42.155Z,17.31
2022-09-28T15:28:54.166Z,17.09
2022-09-28T15:31:44.850Z,16.93
2022-09-28T15:34:48.620Z,16.79
2022-09-28T15:38:29.240Z,16.60
2022-09-28T15:42:37.546Z,16.37
2022-09-28T15:46:45.762Z,16.02
2022-09-28T15:51:00.043Z,15.65
2022-09-28T15:54:53.597Z,15.64
2022-09-28T15:58:54.700Z,16.83
2022-09-28T16:02:44.946Z,16.77
2022-09-28T16:06:45.798Z,16.32
2022-09-28T16:11:00.058Z,15.82
2022-09-28T16:14:58.241Z,15.38
2022-09-28T16:18:52.041Z,14.92
2022-09-28T16:22:06.443Z,14.62
2022-09-28T16:26:17.713Z,14.48
2022-09-28T16:29:51.400Z,15.59
2022-09-28T16:34:21.408Z,15.66
2022-09-28T16:38:38.596Z,15.10
2022-09-28T16:42:29.053Z,14.53
2022-09-28T16:46:37.403Z,14.04
2022-09-28T16:50:45.868Z,13.62
2022-09-28T16:54:54.206Z,13.58
2022-09-28T16:59:02.418Z,14.72
2022-09-28T17:02:57.255Z,14.64
2022-09-28T17:06:54.659Z,14.14
2022-09-28T17:11:22.579Z,13.71
2022-09-28T17:15:32.939Z,13.30
2022-09-28T17:19:41.929Z,13.27
2022-09-28T17:23:45.133Z,14.42
2022-09-28T17:27:46.224Z,14.22
2022-09-28T17:31:50.227Z,13.72
2022-09-28T17:35:58.492Z,13.22
2022-09-28T17:40:07.811Z,12.78
2022-09-28T17:44:16.521Z,12.74
2022-09-28T17:48:11.874Z,13.85
2022-09-28T17:52:02.942Z,13.72
2022-09-28T17:55:57.867Z,13.26
2022-09-28T17:58:30.826Z,12.86
2022-09-28T18:01:14.306Z,12.57
2022-09-28T18:03:50.024Z,12.36
2022-09-28T18:06:52.064Z,12.88
2022-09-28T18:09:25.303Z,13.34
2022-09-28T18:12:04.126Z,13.33
2022-09-28T18:14:36.025Z,13.09
2022-09-28T18:17:08.941Z,12.79
2022-09-28T18:19:47.079Z,12.50
2022-09-28T18:22:39.255Z,12.22
2022-09-28T18:25:11.239Z,11.99
2022-09-28T18:27:38.674Z,12.57
2022-09-28T18:30:09.747Z,13.15
2022-09-28T18:32:38.656Z,13.19
2022-09-28T18:35:10.746Z,13.02
2022-09-28T18:37:40.018Z,12.76
2022-09-28T18:40:12.827Z,12.47
2022-09-28T18:42:50.065Z,12.22
2022-09-28T18:45:18.679Z,12.01
2022-09-28T18:47:56.085Z,12.53
2022-09-28T18:50:38.589Z,13.05
2022-09-28T18:53:39.962Z,13.00
2022-09-28T18:57:48.152Z,12.64
2022-09-28T19:01:25.262Z,12.16
2022-09-28T19:04:20.688Z,11.89
2022-09-28T19:07:08.611Z,11.73
2022-09-28T19:09:36.809Z,12.47
2022-09-28T19:12:10.618Z,13.03
2022-09-28T19:14:44.714Z,13.06
2022-09-28T19:17:35.200Z,12.85
2022-09-28T19:20:02.709Z,12.59
2022-09-28T19:22:35.429Z,12.31
2022-09-28T19:25:02.646Z,12.08
2022-09-28T19:27:40.754Z,11.87
2022-09-28T19:30:15.058Z,12.31
2022-09-28T19:32:44.191Z,12.84
2022-09-28T19:35:16.918Z,12.87
2022-09-28T19:37:51.512Z,12.69
2022-09-28T19:40:21.824Z,12.43
2022-09-28T19:42:54.818Z,12.19
2022-09-28T19:45:30.931Z,11.95
2022-09-28T19:48:27.220Z,12.47
2022-09-28T19:51:05.941Z,12.90
2022-09-28T19:53:47.044Z,12.86
2022-09-28T19:56:27.602Z,12.61
2022-09-28T19:58:58.286Z,12.34
2022-09-28T20:01:27.753Z,12.06
2022-09-28T20:04:00.945Z,11.81
2022-09-28T20:06:50.170Z,11.61
2022-09-28T20:09:20.556Z,12.22
2022-09-28T20:12:02.778Z,12.76
2022-09-28T20:14:39.476Z,12.75
2022-09-28T20:17:11.320Z,12.52
2022-09-28T20:19:45.070Z,12.25
2022-09-28T20:22:13.087Z,11.96
2022-09-28T20:24:55.582Z,11.71
2022-09-28T20:27:26.556Z,11.48
2022-09-28T20:29:54.507Z,11.30
2022-09-28T20:32:27.561Z,11.85
2022-09-28T20:34:54.923Z,12.49
2022-09-28T20:37:23.388Z,12.59
2022-09-28T20:39:53.409Z,12.41
2022-09-28T20:42:24.336Z,12.14
2022-09-28T20:45:00.809Z,11.88
2022-09-28T20:47:28.666Z,11.60
2022-09-28T20:49:56.023Z,11.36
2022-09-28T20:52:28.890Z,11.81
2022-09-28T20:54:56.362Z,12.36
2022-09-28T20:57:34.896Z,12.38
2022-09-28T21:00:05.347Z,12.16
2022-09-28T21:02:35.680Z,11.89
2022-09-28T21:05:03.058Z,11.62
2022-09-28T21:07:31.217Z,11.36
2022-09-28T21:09:58.705Z,11.14
2022-09-28T21:12:28.182Z,11.58
2022-09-28T21:14:55.609Z,12.14
2022-09-28T21:17:25.768Z,12.18
2022-09-28T21:19:53.703Z,11.96
2022-09-28T21:22:21.212Z,11.66
2022-09-28T21:24:52.118Z,11.36
2022-09-28T21:27:22.893Z,11.12
2022-09-28T21:29:59.066Z,11.51
2022-09-28T21:32:27.926Z,12.05
2022-09-28T21:34:58.431Z,12.09
2022-09-28T21:37:25.962Z,11.88
2022-09-28T21:39:54.246Z,11.61
2022-09-28T21:42:24.622Z,11.36
2022-09-28T21:44:59.376Z,11.10
2022-09-28T21:47:44.517Z,10.87
2022-09-28T21:50:17.837Z,11.48
2022-09-28T21:52:52.399Z,12.01
2022-09-28T21:55:20.714Z,12.03
2022-09-28T21:57:49.149Z,11.82
2022-09-28T22:00:18.464Z,11.53
2022-09-28T22:02:49.481Z,11.22
2022-09-28T22:05:17.660Z,10.96
2022-09-28T22:08:47.691Z,11.37
2022-09-28T22:12:54.885Z,11.96
2022-09-28T22:16:55.739Z,11.60
2022-09-28T22:21:03.851Z,11.07
2022-09-28T22:24:57.590Z,10.66
2022-09-28T22:28:43.339Z,10.56
2022-09-28T22:32:52.461Z,11.75
2022-09-28T22:37:02.619Z,11.76
2022-09-28T22:41:10.940Z,11.32
2022-09-28T22:45:01.332Z,10.88
2022-09-28T22:49:10.485Z,10.71
2022-09-28T22:53:19.007Z,11.82
2022-09-28T22:57:21.046Z,11.77
2022-09-28T23:01:13.661Z,11.34
2022-09-28T23:05:22.556Z,10.90
2022-09-28T23:09:30.679Z,10.55
2022-09-28T23:13:28.810Z,10.54
2022-09-28T23:17:36.918Z,11.82
2022-09-28T23:21:45.213Z,11.84
2022-09-28T23:25:38.990Z,11.47
2022-09-28T23:29:22.357Z,11.11
2022-09-28T23:33:30.622Z,11.00
2022-09-28T23:37:31.356Z,12.15
2022-09-28T23:41:31.325Z,12.09
2022-09-28T23:45:39.524Z,11.65
2022-09-28T23:49:47.455Z,11.20
2022-09-28T23:53:55.707Z,11.17
2022-09-28T23:57:52.695Z,12.26
